메인 페이지
METAR-TAF:

METAR-TAF

공항 :

라르나카, 키프로스

라르나카 국제공항

위도: 34-53N, 경도: 033-38E, 고도: 2m

현재 날씨관측

예보는 18분 전, 05:30시(UTC)에 발표되었습니다.
북서5kt
온도 12°C
습도 100%
기압 1014 hPa
시정 10km 이상
고도 5000ft 상공 구름 조금

METAR: LCLK 200530Z 31005KT 9999 FEW050 12/12 Q1014 NOSIG

시각: 07:48 (05:48 UTC)

예보

예보는 18분 전, 05:30시(UTC)에 발표되었습니다.
예보 대상 시간: 20일 06시부터 21일 06시까지 (UTC)
남남동7kt
시정 10km 이상
고도 2000ft 상공 구름 조금
고도 5000ft 상공 구름 보통
전환 중
20일 08시부터 20일 11시까지 (UTC)
남남서10kt
확률 30% :
일시적
20일 10시부터 20일 15시까지 (UTC)
고도 3000ft 상공 구름 보통, 타워링 적운.
전환 중
20일 16시부터 20일 19시까지 (UTC)
북서5kt
확률 30%
20일 22시부터 21일 05시까지 (UTC)
시정: 5000m
박무

TAF: LCLK 200530Z 2006/2106 15007KT 9999 FEW020 SCT050 BECMG 2008/2011 20010KT PROB30 TEMPO 2010/2015 SCT030TCU BECMG 2016/2019 32005KT PROB30 2022/2105 5000 BR

4,000개 이상의 공항 관측 자료 및 예보 (METAR 및 TAF 보고).

지도상에서 검색 가능한 기상관측소가 노란 점과 빨간 점으로 표시되어 있습니다.

기상관측소 명을 보려면 표시 위로 마우스를 이동하세요.

날씨 관측과 예보를 보려면 클릭하세요.

지도 변경 : 확대하려면 엑스 표시가 있는 녹색 버튼, 축소하려면 빼기 표시가 있는 녹색 버튼, 다음 페이지의 지도를 보려면 녹색 화살표를 클릭하세요.


METAR-TAF: